createdAt,value
2022-12-05T00:01:35.930Z,25.13
2022-12-05T00:04:04.934Z,21.47
2022-12-05T00:06:33.033Z,26.87
2022-12-05T00:09:00.185Z,23.80
2022-12-05T00:11:29.149Z,20.10
2022-12-05T00:13:58.291Z,21.47
2022-12-05T00:16:27.341Z,24.13
2022-12-05T00:18:56.027Z,14.83
2022-12-05T00:21:24.727Z,19.57
2022-12-05T00:23:52.900Z,22.60
2022-12-05T00:26:20.354Z,21.63
2022-12-05T00:28:47.597Z,21.07
2022-12-05T00:31:17.015Z,24.07
2022-12-05T00:33:44.367Z,23.40
2022-12-05T00:36:14.332Z,20.73
2022-12-05T00:38:41.445Z,21.13
2022-12-05T00:41:10.302Z,19.53
2022-12-05T00:43:37.466Z,20.03
2022-12-05T00:46:05.964Z,19.97
2022-12-05T00:48:33.548Z,22.67
2022-12-05T00:51:01.755Z,19.77
2022-12-05T00:53:29.867Z,25.60
2022-12-05T00:55:57.038Z,15.20
2022-12-05T00:58:23.799Z,25.90
2022-12-05T01:00:50.566Z,19.40
2022-12-05T01:03:17.567Z,21.70
2022-12-05T01:05:44.409Z,22.07
2022-12-05T01:08:11.332Z,21.03
2022-12-05T01:10:39.585Z,20.30
2022-12-05T01:13:06.361Z,19.87
2022-12-05T01:15:36.644Z,21.40
2022-12-05T01:18:03.554Z,19.63
2022-12-05T01:20:30.313Z,21.80
2022-12-05T01:22:57.095Z,20.10
2022-12-05T01:25:23.836Z,20.87
2022-12-05T01:27:52.026Z,20.10
2022-12-05T01:30:18.883Z,21.87
2022-12-05T01:32:45.692Z,20.53
2022-12-05T01:35:12.565Z,23.27
2022-12-05T01:37:39.353Z,17.77
2022-12-05T01:40:07.954Z,19.73
2022-12-05T01:42:34.763Z,20.23
2022-12-05T01:45:13.618Z,23.87
2022-12-05T01:47:40.640Z,19.27
2022-12-05T01:50:08.739Z,19.33
2022-12-05T01:52:36.125Z,19.77
2022-12-05T01:55:08.974Z,22.00
2022-12-05T01:57:36.134Z,19.33
2022-12-05T02:00:09.459Z,20.77
2022-12-05T02:02:36.366Z,17.50
2022-12-05T02:05:06.794Z,22.40
2022-12-05T02:07:34.899Z,21.50
2022-12-05T02:10:01.832Z,22.10
2022-12-05T02:12:28.657Z,19.03
2022-12-05T02:15:17.268Z,20.10
2022-12-05T02:17:53.772Z,17.87
2022-12-05T02:20:32.806Z,18.47
2022-12-05T02:23:25.962Z,18.87
2022-12-05T02:26:16.938Z,18.17
2022-12-05T02:28:53.671Z,19.77
2022-12-05T02:31:27.576Z,20.07
2022-12-05T02:34:05.149Z,18.80
2022-12-05T02:36:39.517Z,19.10
2022-12-05T02:39:14.143Z,15.87
2022-12-05T02:41:49.527Z,17.83
2022-12-05T02:44:20.545Z,16.83
2022-12-05T02:46:51.525Z,19.90
2022-12-05T02:49:22.935Z,17.63
2022-12-05T02:51:55.120Z,17.17
2022-12-05T02:54:26.520Z,18.03
2022-12-05T02:56:54.724Z,14.80
2022-12-05T02:59:23.494Z,17.80
2022-12-05T03:01:52.211Z,15.90
2022-12-05T03:04:22.403Z,14.70
2022-12-05T03:06:54.271Z,16.43
2022-12-05T03:09:24.605Z,16.30
2022-12-05T03:11:55.639Z,15.70
2022-12-05T03:14:28.652Z,13.23
2022-12-05T03:17:00.744Z,14.30
2022-12-05T03:19:32.537Z,12.60
2022-12-05T03:22:02.129Z,13.87
2022-12-05T03:24:30.405Z,12.90
2022-12-05T03:27:07.440Z,12.10
2022-12-05T03:29:40.415Z,13.80
2022-12-05T03:32:11.185Z,14.30
2022-12-05T03:34:47.811Z,13.07
2022-12-05T03:37:23.142Z,11.97
2022-12-05T03:40:00.959Z,13.17
2022-12-05T03:42:33.610Z,12.20
2022-12-05T03:45:04.062Z,12.63
2022-12-05T03:47:38.759Z,10.73
2022-12-05T03:50:11.909Z,13.40
2022-12-05T03:53:17.473Z,12.57
2022-12-05T03:55:35.585Z,11.40
2022-12-05T03:58:05.996Z,12.07
2022-12-05T04:00:35.916Z,11.60
2022-12-05T04:03:07.979Z,12.03
2022-12-05T04:05:40.059Z,12.23
2022-12-05T04:08:09.742Z,10.47
2022-12-05T04:10:39.475Z,11.43
2022-12-05T04:13:06.724Z,11.77
2022-12-05T04:15:34.330Z,12.77
2022-12-05T04:18:01.255Z,12.20
2022-12-05T04:20:34.845Z,12.57
2022-12-05T04:23:02.344Z,11.63
2022-12-05T04:25:37.224Z,11.20
2022-12-05T04:28:21.646Z,11.30
2022-12-05T04:30:53.133Z,10.73
2022-12-05T04:33:25.210Z,12.03
2022-12-05T04:35:58.754Z,10.80
2022-12-05T04:38:31.533Z,10.63
2022-12-05T04:41:01.526Z,11.20
2022-12-05T04:43:30.462Z,11.97
2022-12-05T04:45:59.664Z,10.63
2022-12-05T04:48:28.006Z,9.70
2022-12-05T04:50:58.159Z,10.83
2022-12-05T04:53:29.305Z,11.03
2022-12-05T04:55:58.986Z,11.47
2022-12-05T04:58:27.509Z,11.57
2022-12-05T05:01:02.604Z,11.97
2022-12-05T05:03:34.194Z,11.50
2022-12-05T05:06:02.874Z,9.50
2022-12-05T05:08:29.888Z,11.13
2022-12-05T05:11:10.910Z,11.10
2022-12-05T05:13:37.708Z,9.60
2022-12-05T05:16:05.284Z,11.90
2022-12-05T05:18:32.134Z,10.23
2022-12-05T05:20:58.850Z,9.10
2022-12-05T05:23:27.023Z,10.40
2022-12-05T05:25:54.153Z,9.20
2022-12-05T05:28:21.407Z,9.57
2022-12-05T05:30:48.845Z,9.03
2022-12-05T05:33:15.775Z,9.60
2022-12-05T05:35:42.644Z,9.73
2022-12-05T05:38:09.557Z,9.50
2022-12-05T05:40:37.756Z,9.60
2022-12-05T05:43:04.532Z,9.00
2022-12-05T05:45:31.312Z,9.00
2022-12-05T05:47:58.059Z,8.10
2022-12-05T05:50:24.839Z,8.00
2022-12-05T05:52:51.629Z,7.67
2022-12-05T05:55:18.594Z,9.17
2022-12-05T05:57:47.193Z,9.80
2022-12-05T06:00:15.243Z,8.13
2022-12-05T06:02:42.311Z,9.60
2022-12-05T06:05:09.625Z,9.23
2022-12-05T06:07:36.478Z,9.37
2022-12-05T06:10:03.768Z,9.23
2022-12-05T06:12:30.516Z,9.73
2022-12-05T06:14:58.687Z,10.00
2022-12-05T06:17:25.518Z,9.57
2022-12-05T06:19:52.274Z,12.17
2022-12-05T06:22:19.080Z,8.80
2022-12-05T06:24:45.942Z,9.17
2022-12-05T06:27:12.755Z,9.10
2022-12-05T06:29:39.724Z,9.33
2022-12-05T06:32:07.933Z,9.73
2022-12-05T06:34:34.865Z,8.93
2022-12-05T06:37:01.826Z,9.23
2022-12-05T06:39:28.583Z,9.53
2022-12-05T06:41:55.456Z,8.80
2022-12-05T06:44:22.532Z,9.37
2022-12-05T06:46:49.299Z,8.10
2022-12-05T06:49:17.534Z,9.83
2022-12-05T06:51:44.423Z,10.10
2022-12-05T06:54:12.112Z,10.60
2022-12-05T06:56:39.214Z,9.97
2022-12-05T06:59:06.262Z,10.00
2022-12-05T07:01:33.043Z,8.77
2022-12-05T07:04:00.136Z,10.30
2022-12-05T07:06:28.638Z,9.50
2022-12-05T07:08:55.538Z,8.70
2022-12-05T07:11:22.375Z,9.67
2022-12-05T07:13:49.207Z,10.70
2022-12-05T07:16:16.003Z,9.40
2022-12-05T07:18:43.340Z,10.70
2022-12-05T07:21:13.869Z,9.67
2022-12-05T07:23:43.980Z,9.97
2022-12-05T07:26:12.914Z,10.20
2022-12-05T07:28:39.700Z,9.83
2022-12-05T07:31:07.975Z,8.63
2022-12-05T07:33:35.646Z,10.07
2022-12-05T07:36:04.153Z,8.83
2022-12-05T07:38:31.439Z,7.50
2022-12-05T07:40:59.590Z,10.37
2022-12-05T07:43:26.509Z,10.93
2022-12-05T07:45:53.362Z,9.37
2022-12-05T07:48:20.178Z,9.47
2022-12-05T07:50:46.960Z,10.20
2022-12-05T07:53:13.848Z,9.47
2022-12-05T07:55:40.697Z,10.80
2022-12-05T07:58:08.804Z,10.63
2022-12-05T08:00:35.627Z,11.23
2022-12-05T08:03:02.901Z,10.10
2022-12-05T08:05:29.777Z,12.77
2022-12-05T08:07:56.581Z,10.70
2022-12-05T08:10:23.556Z,10.10
2022-12-05T08:12:50.437Z,10.33
2022-12-05T08:15:20.718Z,7.80
2022-12-05T08:17:47.558Z,11.20
2022-12-05T08:20:17.570Z,11.07
2022-12-05T08:22:44.534Z,10.30
2022-12-05T08:25:11.388Z,10.27
2022-12-05T08:27:38.305Z,10.67
2022-12-05T08:30:06.511Z,11.33
2022-12-05T08:32:34.611Z,11.90
2022-12-05T08:35:01.367Z,12.20
2022-12-05T08:37:28.188Z,8.90
2022-12-05T08:39:55.050Z,11.53
2022-12-05T08:42:21.898Z,11.20
2022-12-05T08:44:48.658Z,11.73
2022-12-05T08:47:15.503Z,9.60
2022-12-05T08:49:43.657Z,12.47
2022-12-05T08:52:10.742Z,11.97
2022-12-05T08:54:37.660Z,10.60
2022-12-05T08:57:04.449Z,12.33
2022-12-05T08:59:31.282Z,12.30
2022-12-05T09:01:58.115Z,11.20
2022-12-05T09:04:24.979Z,12.17
2022-12-05T09:06:53.110Z,10.47
2022-12-05T09:09:22.376Z,10.83
2022-12-05T09:11:58.559Z,9.77
2022-12-05T09:14:25.373Z,9.97
2022-12-05T09:16:52.178Z,12.30
2022-12-05T09:19:20.430Z,11.20
2022-12-05T09:21:47.320Z,12.27
2022-12-05T09:24:15.535Z,10.80
2022-12-05T09:26:42.791Z,10.80
2022-12-05T09:29:16.142Z,10.73
2022-12-05T09:31:44.361Z,12.77
2022-12-05T09:34:11.272Z,10.00
2022-12-05T09:36:38.111Z,10.17
2022-12-05T09:39:07.225Z,12.43
2022-12-05T09:42:13.435Z,10.63
2022-12-05T09:44:52.971Z,10.70
2022-12-05T09:47:32.614Z,12.37
2022-12-05T09:50:04.529Z,12.63
2022-12-05T09:52:38.337Z,10.40
2022-12-05T09:55:12.618Z,10.90
2022-12-05T09:57:44.426Z,11.70
2022-12-05T10:00:12.685Z,11.97
2022-12-05T10:02:47.627Z,10.83
2022-12-05T10:05:21.087Z,13.10
2022-12-05T10:07:56.922Z,12.03
2022-12-05T10:10:32.930Z,11.47
2022-12-05T10:13:20.258Z,11.10
2022-12-05T10:15:53.072Z,11.70
2022-12-05T10:18:31.889Z,11.50
2022-12-05T10:21:03.554Z,15.07
2022-12-05T10:26:27.016Z,14.40
2022-12-05T10:29:00.999Z,13.60
2022-12-05T10:31:32.200Z,11.37
2022-12-05T10:34:04.134Z,15.07
2022-12-05T10:36:31.306Z,15.10
2022-12-05T10:38:59.458Z,13.07
2022-12-05T10:41:26.389Z,14.40
2022-12-05T10:43:56.642Z,12.80
2022-12-05T10:46:23.517Z,12.77
2022-12-05T10:48:50.390Z,12.50
2022-12-05T10:51:20.773Z,11.80
2022-12-05T10:53:49.724Z,10.60
2022-12-05T10:56:36.269Z,12.37
2022-12-05T10:59:05.614Z,12.13
2022-12-05T11:01:33.693Z,12.47
2022-12-05T11:04:09.185Z,12.17
2022-12-05T11:06:38.946Z,12.90
2022-12-05T11:09:16.886Z,12.77
2022-12-05T11:12:00.627Z,13.07
2022-12-05T11:14:29.352Z,12.87
2022-12-05T11:16:58.244Z,13.17
2022-12-05T11:19:28.004Z,10.90
2022-12-05T11:21:55.868Z,16.07
2022-12-05T11:24:27.801Z,16.03
2022-12-05T11:26:55.058Z,18.47
2022-12-05T11:29:34.982Z,15.93
2022-12-05T11:32:03.316Z,16.93
2022-12-05T11:34:36.799Z,15.30
2022-12-05T11:37:11.806Z,15.30
2022-12-05T11:39:38.891Z,14.53
2022-12-05T11:42:20.978Z,15.80
2022-12-05T11:45:15.646Z,15.80
2022-12-05T11:47:57.377Z,14.20
2022-12-05T11:50:37.331Z,15.87
2022-12-05T11:53:23.137Z,14.47
2022-12-05T11:55:54.366Z,16.60
2022-12-05T11:58:48.726Z,14.20
2022-12-05T12:01:27.479Z,15.00
2022-12-05T12:04:13.669Z,14.80
2022-12-05T12:06:50.128Z,14.37
2022-12-05T12:09:38.033Z,14.83
2022-12-05T12:12:12.964Z,14.57
2022-12-05T12:14:48.481Z,14.10
2022-12-05T12:17:22.581Z,18.60
2022-12-05T12:20:11.492Z,15.90
2022-12-05T12:22:51.882Z,15.43
2022-12-05T12:25:31.695Z,15.10
2022-12-05T12:28:10.482Z,18.97
2022-12-05T12:30:53.334Z,18.03
2022-12-05T12:33:31.226Z,17.37
2022-12-05T12:36:05.815Z,18.67
2022-12-05T12:38:51.491Z,15.93
2022-12-05T12:41:34.416Z,16.30
2022-12-05T12:44:14.542Z,15.70
2022-12-05T12:46:50.524Z,15.70
2022-12-05T12:49:38.222Z,14.50
2022-12-05T12:52:11.540Z,16.63
2022-12-05T12:55:03.860Z,16.60
2022-12-05T12:57:44.276Z,15.83
2022-12-05T13:00:20.253Z,13.50
2022-12-05T13:02:52.293Z,13.30
2022-12-05T13:05:27.065Z,13.37
2022-12-05T13:07:59.892Z,13.70
2022-12-05T13:10:32.220Z,15.73
2022-12-05T13:12:59.756Z,13.67
2022-12-05T13:15:34.565Z,14.60
2022-12-05T13:18:03.241Z,17.23
2022-12-05T13:20:34.938Z,14.63
2022-12-05T13:23:07.843Z,14.97
2022-12-05T13:25:37.637Z,16.43
2022-12-05T13:28:09.767Z,14.30
2022-12-05T13:30:36.562Z,13.03
2022-12-05T13:33:09.493Z,16.00
2022-12-05T13:35:39.004Z,14.30
2022-12-05T13:38:05.961Z,13.37
2022-12-05T13:40:35.683Z,15.10
2022-12-05T13:43:04.458Z,15.57
2022-12-05T13:45:31.720Z,16.00
2022-12-05T13:48:14.074Z,14.03
2022-12-05T13:50:49.920Z,13.73
2022-12-05T13:53:39.285Z,13.27
2022-12-05T13:56:22.175Z,12.97
2022-12-05T13:58:50.714Z,12.30
2022-12-05T14:01:47.636Z,12.80
2022-12-05T14:04:39.582Z,12.83
2022-12-05T14:07:10.649Z,11.93
2022-12-05T14:09:53.134Z,10.80
2022-12-05T14:12:31.034Z,11.60
2022-12-05T14:15:01.994Z,11.60
2022-12-05T14:17:30.892Z,10.27
2022-12-05T14:20:19.160Z,13.40
2022-12-05T14:23:01.947Z,11.60
2022-12-05T14:26:05.602Z,10.60
2022-12-05T14:28:49.970Z,9.30
2022-12-05T14:31:31.951Z,16.77
2022-12-05T14:34:13.857Z,11.87
2022-12-05T14:36:56.003Z,11.50
2022-12-05T14:39:37.390Z,10.30
2022-12-05T14:42:18.583Z,12.07
2022-12-05T14:44:47.294Z,10.40
2022-12-05T14:47:19.965Z,9.00
2022-12-05T14:49:53.697Z,10.00
2022-12-05T14:52:22.830Z,11.07
2022-12-05T14:54:52.468Z,11.10
2022-12-05T14:57:20.621Z,12.53
2022-12-05T14:59:52.513Z,11.13
2022-12-05T15:02:24.602Z,9.33
2022-12-05T15:04:55.833Z,9.43
2022-12-05T15:07:31.706Z,10.10
2022-12-05T15:10:02.649Z,12.07
2022-12-05T15:12:33.795Z,9.60
2022-12-05T15:15:06.691Z,10.23
2022-12-05T15:17:38.933Z,9.70
2022-12-05T15:20:14.570Z,10.07
2022-12-05T15:22:41.455Z,8.57
2022-12-05T15:25:28.174Z,10.93
2022-12-05T15:27:57.282Z,9.90
2022-12-05T15:30:24.376Z,11.10
2022-12-05T15:32:56.157Z,8.10
2022-12-05T15:35:28.700Z,8.50
2022-12-05T15:37:59.036Z,8.37
2022-12-05T15:40:33.652Z,7.90
2022-12-05T15:43:00.435Z,8.37
2022-12-05T15:45:29.654Z,8.57
2022-12-05T15:48:12.364Z,7.60
2022-12-05T15:50:41.105Z,7.60
2022-12-05T15:53:14.318Z,6.83
2022-12-05T15:55:46.899Z,7.40
2022-12-05T15:58:21.307Z,7.13
2022-12-05T16:00:50.951Z,7.07
2022-12-05T16:03:22.922Z,7.10
2022-12-05T16:05:54.311Z,9.40
2022-12-05T16:08:21.808Z,7.57
2022-12-05T16:10:50.330Z,8.70
2022-12-05T16:13:24.672Z,9.17
2022-12-05T16:15:54.459Z,8.17
2022-12-05T16:18:26.790Z,11.63
2022-12-05T16:20:53.673Z,8.70
2022-12-05T16:23:25.940Z,10.67
2022-12-05T16:26:09.543Z,14.67
2022-12-05T16:28:36.345Z,9.67
2022-12-05T16:31:05.079Z,11.27
2022-12-05T16:33:33.172Z,10.63
2022-12-05T16:36:08.077Z,11.40
2022-12-05T16:38:35.392Z,11.07
2022-12-05T16:41:05.324Z,10.27
2022-12-05T16:43:44.547Z,14.30
2022-12-05T16:46:43.509Z,8.80
2022-12-05T16:49:33.005Z,9.40
2022-12-05T16:52:03.921Z,9.07
2022-12-05T16:54:30.700Z,9.80
2022-12-05T16:56:59.908Z,9.30
2022-12-05T16:59:32.482Z,9.80
2022-12-05T17:01:59.791Z,10.43
2022-12-05T17:04:26.714Z,8.70
2022-12-05T17:06:53.730Z,10.37
2022-12-05T17:09:20.670Z,11.03
2022-12-05T17:11:49.764Z,10.00
2022-12-05T17:14:18.696Z,7.57
2022-12-05T17:16:45.756Z,8.60
2022-12-05T17:19:13.106Z,7.50
2022-12-05T17:21:41.459Z,7.43
2022-12-05T17:24:12.623Z,7.80
2022-12-05T17:26:39.425Z,7.70
2022-12-05T17:29:06.167Z,7.47
2022-12-05T17:31:34.440Z,6.80
2022-12-05T17:34:01.282Z,7.70
2022-12-05T17:36:28.121Z,7.73
2022-12-05T17:38:54.940Z,9.73
2022-12-05T17:41:23.429Z,7.63
2022-12-05T17:43:50.901Z,7.50
2022-12-05T17:46:19.483Z,17.53
2022-12-05T17:48:48.045Z,8.27
2022-12-05T17:51:14.900Z,7.97
2022-12-05T17:53:42.328Z,9.27
2022-12-05T17:56:09.111Z,7.80
2022-12-05T17:58:36.146Z,7.23
2022-12-05T18:01:03.531Z,7.70
2022-12-05T18:03:30.578Z,8.60
2022-12-05T18:05:58.855Z,9.50
2022-12-05T18:08:25.657Z,8.33
2022-12-05T18:10:52.443Z,7.93
2022-12-05T18:13:19.306Z,6.83
2022-12-05T18:15:47.694Z,8.37
2022-12-05T18:18:16.586Z,7.60
2022-12-05T18:20:43.704Z,8.40
2022-12-05T18:23:12.005Z,7.27
2022-12-05T18:25:38.864Z,7.63
2022-12-05T18:28:05.783Z,7.13
2022-12-05T18:30:32.731Z,7.90
2022-12-05T18:32:59.500Z,6.77
2022-12-05T18:35:26.280Z,7.50
2022-12-05T18:37:53.054Z,6.27
2022-12-05T18:40:21.310Z,7.87
2022-12-05T18:42:48.204Z,7.30
2022-12-05T18:45:15.045Z,6.80
2022-12-05T18:47:41.784Z,7.00
2022-12-05T18:50:09.360Z,6.40
2022-12-05T18:52:36.161Z,8.50
2022-12-05T18:55:16.905Z,7.73
2022-12-05T18:57:45.867Z,6.03
2022-12-05T19:00:13.682Z,7.97
2022-12-05T19:02:40.493Z,7.10
2022-12-05T19:05:07.700Z,8.10
2022-12-05T19:07:34.587Z,6.40
2022-12-05T19:10:01.441Z,6.87
2022-12-05T19:12:28.199Z,6.70
2022-12-05T19:14:56.558Z,7.67
2022-12-05T19:17:23.665Z,5.97
2022-12-05T19:19:50.468Z,6.47
2022-12-05T19:22:17.199Z,6.53
2022-12-05T19:24:43.948Z,8.47
2022-12-05T19:27:10.773Z,6.87
2022-12-05T19:29:37.582Z,7.30
2022-12-05T19:32:06.018Z,6.20
2022-12-05T19:34:33.865Z,6.80
2022-12-05T19:37:00.598Z,8.00
2022-12-05T19:39:27.497Z,7.00
2022-12-05T19:41:54.252Z,9.90
2022-12-05T19:44:21.038Z,8.67
2022-12-05T19:46:48.964Z,6.80
2022-12-05T19:49:17.434Z,7.13
2022-12-05T19:51:44.918Z,6.70
2022-12-05T19:54:13.223Z,7.67
2022-12-05T19:56:40.072Z,6.37
2022-12-05T19:59:07.096Z,6.20
2022-12-05T20:01:35.766Z,5.97
2022-12-05T20:04:04.917Z,6.73
2022-12-05T20:06:36.420Z,5.90
2022-12-05T20:09:07.229Z,5.67
2022-12-05T20:11:38.637Z,6.30
2022-12-05T20:14:06.039Z,6.87
2022-12-05T20:16:32.958Z,6.47
2022-12-05T20:19:00.315Z,5.73
2022-12-05T20:21:29.065Z,7.00
2022-12-05T20:23:58.939Z,6.23
2022-12-05T20:26:27.971Z,7.80
2022-12-05T20:28:55.301Z,7.50
2022-12-05T20:31:23.563Z,7.40
2022-12-05T20:33:51.421Z,6.20
2022-12-05T20:36:23.127Z,7.73
2022-12-05T20:38:55.309Z,7.67
2022-12-05T20:41:23.490Z,6.07
2022-12-05T20:43:58.217Z,6.80
2022-12-05T20:46:26.084Z,7.93
2022-12-05T20:48:53.099Z,5.87
2022-12-05T20:51:21.777Z,6.03
2022-12-05T20:53:48.731Z,6.50
2022-12-05T20:56:17.479Z,6.80
2022-12-05T20:58:47.745Z,6.70
2022-12-05T21:01:16.585Z,6.20
2022-12-05T21:03:45.658Z,7.00
2022-12-05T21:06:14.466Z,7.17
2022-12-05T21:08:41.541Z,6.87
2022-12-05T21:11:09.842Z,6.87
2022-12-05T21:13:36.914Z,6.63
2022-12-05T21:16:07.318Z,5.93
2022-12-05T21:18:34.494Z,7.03
2022-12-05T21:21:03.592Z,6.00
2022-12-05T21:23:30.728Z,6.00
2022-12-05T21:26:01.587Z,7.00
2022-12-05T21:28:29.614Z,6.80
2022-12-05T21:30:56.423Z,7.00
2022-12-05T21:33:28.658Z,6.80
2022-12-05T21:35:55.854Z,6.03
2022-12-05T21:38:22.640Z,5.47
2022-12-05T21:40:49.425Z,5.70
2022-12-05T21:43:16.202Z,6.63
2022-12-05T21:45:44.978Z,6.43
2022-12-05T21:48:13.406Z,6.90
2022-12-05T21:50:42.204Z,7.30
2022-12-05T21:53:08.969Z,7.37
2022-12-05T21:55:35.743Z,6.67
2022-12-05T21:58:02.535Z,8.07
2022-12-05T22:00:29.296Z,7.30
2022-12-05T22:02:56.247Z,8.03
2022-12-05T22:05:23.039Z,7.33
2022-12-05T22:07:51.279Z,7.77
2022-12-05T22:10:18.259Z,8.40
2022-12-05T22:12:45.386Z,8.50
2022-12-05T22:15:12.326Z,7.20
2022-12-05T22:17:39.110Z,7.67
2022-12-05T22:20:06.899Z,7.97
2022-12-05T22:22:35.554Z,8.20
2022-12-05T22:25:04.026Z,7.63
2022-12-05T22:27:30.866Z,7.57
2022-12-05T22:29:57.737Z,7.57
2022-12-05T22:32:24.630Z,7.00
2022-12-05T22:34:51.494Z,7.10
2022-12-05T22:37:18.274Z,7.57
2022-12-05T22:39:45.073Z,8.17
2022-12-05T22:42:13.211Z,7.17
2022-12-05T22:44:39.971Z,7.37
2022-12-05T22:47:06.823Z,7.90
2022-12-05T22:49:33.614Z,9.40
2022-12-05T22:52:00.378Z,8.10
2022-12-05T22:54:30.189Z,7.47
2022-12-05T22:56:57.294Z,8.43
2022-12-05T22:59:25.924Z,7.70
2022-12-05T23:01:52.677Z,7.90
2022-12-05T23:04:19.598Z,7.43
2022-12-05T23:06:46.571Z,9.07
2022-12-05T23:09:13.378Z,8.77
2022-12-05T23:11:40.512Z,8.50
2022-12-05T23:14:07.346Z,6.53
2022-12-05T23:16:35.622Z,8.40
2022-12-05T23:19:04.739Z,8.33
2022-12-05T23:21:33.441Z,9.50
2022-12-05T23:24:01.680Z,8.80
2022-12-05T23:26:30.846Z,9.10
2022-12-05T23:28:57.799Z,10.00
2022-12-05T23:31:24.828Z,9.30
2022-12-05T23:33:54.506Z,8.60
2022-12-05T23:36:23.068Z,9.63
2022-12-05T23:38:49.853Z,8.77
2022-12-05T23:41:18.772Z,6.53
2022-12-05T23:43:46.118Z,7.93
2022-12-05T23:46:15.140Z,8.67
2022-12-05T23:48:42.456Z,9.30
2022-12-05T23:51:13.010Z,8.67
2022-12-05T23:53:42.053Z,8.40
2022-12-05T23:56:11.384Z,8.57
2022-12-05T23:58:38.660Z,8.40
